sensor_id;sensor_type;location;lat;lon;timestamp;P1;durP1;ratioP1;P2;durP2;ratioP2
32138;SDS011;18644;48.700;9.210;2023-06-14T00:01:57;2.72;;;2.30;;
32138;SDS011;18644;48.700;9.210;2023-06-14T00:04:24;2.55;;;2.35;;
32138;SDS011;18644;48.700;9.210;2023-06-14T00:06:51;3.60;;;2.38;;
32138;SDS011;18644;48.700;9.210;2023-06-14T00:09:18;8.27;;;2.30;;
32138;SDS011;18644;48.700;9.210;2023-06-14T00:11:45;2.72;;;2.28;;
32138;SDS011;18644;48.700;9.210;2023-06-14T00:14:13;2.63;;;2.28;;
32138;SDS011;18644;48.700;9.210;2023-06-14T00:16:40;3.22;;;2.40;;
32138;SDS011;18644;48.700;9.210;2023-06-14T00:19:08;2.92;;;2.33;;
32138;SDS011;18644;48.700;9.210;2023-06-14T00:21:35;2.78;;;2.20;;
32138;SDS011;18644;48.700;9.210;2023-06-14T00:24:03;2.67;;;2.38;;
32138;SDS011;18644;48.700;9.210;2023-06-14T00:26:31;3.45;;;2.50;;
32138;SDS011;18644;48.700;9.210;2023-06-14T00:28:57;4.25;;;2.70;;
32138;SDS011;18644;48.700;9.210;2023-06-14T00:31:26;3.63;;;2.50;;
32138;SDS011;18644;48.700;9.210;2023-06-14T00:33:52;3.67;;;2.28;;
32138;SDS011;18644;48.700;9.210;2023-06-14T00:36:19;5.07;;;2.75;;
32138;SDS011;18644;48.700;9.210;2023-06-14T00:38:46;5.70;;;2.65;;
32138;SDS011;18644;48.700;9.210;2023-06-14T00:41:13;6.03;;;2.63;;
32138;SDS011;18644;48.700;9.210;2023-06-14T00:43:40;2.55;;;2.33;;
32138;SDS011;18644;48.700;9.210;2023-06-14T00:46:07;10.05;;;2.80;;
32138;SDS011;18644;48.700;9.210;2023-06-14T00:48:35;4.82;;;2.67;;
32138;SDS011;18644;48.700;9.210;2023-06-14T00:51:04;3.40;;;2.38;;
32138;SDS011;18644;48.700;9.210;2023-06-14T00:53:31;4.35;;;2.90;;
32138;SDS011;18644;48.700;9.210;2023-06-14T00:56:00;4.80;;;2.63;;
32138;SDS011;18644;48.700;9.210;2023-06-14T00:58:28;2.33;;;2.10;;
32138;SDS011;18644;48.700;9.210;2023-06-14T01:00:55;3.58;;;2.40;;
32138;SDS011;18644;48.700;9.210;2023-06-14T01:03:22;3.20;;;2.90;;
32138;SDS011;18644;48.700;9.210;2023-06-14T01:05:56;10.98;;;3.03;;
32138;SDS011;18644;48.700;9.210;2023-06-14T01:08:40;3.03;;;2.35;;
32138;SDS011;18644;48.700;9.210;2023-06-14T01:11:18;3.63;;;2.28;;
32138;SDS011;18644;48.700;9.210;2023-06-14T01:13:48;3.28;;;2.38;;
32138;SDS011;18644;48.700;9.210;2023-06-14T01:16:18;3.33;;;2.13;;
32138;SDS011;18644;48.700;9.210;2023-06-14T01:18:45;2.95;;;2.40;;
32138;SDS011;18644;48.700;9.210;2023-06-14T01:21:20;4.00;;;2.58;;
32138;SDS011;18644;48.700;9.210;2023-06-14T01:23:50;3.65;;;2.53;;
32138;SDS011;18644;48.700;9.210;2023-06-14T01:26:18;4.03;;;2.38;;
32138;SDS011;18644;48.700;9.210;2023-06-14T01:28:46;3.28;;;2.40;;
32138;SDS011;18644;48.700;9.210;2023-06-14T01:31:16;3.05;;;2.35;;
32138;SDS011;18644;48.700;9.210;2023-06-14T01:33:46;3.78;;;2.50;;
32138;SDS011;18644;48.700;9.210;2023-06-14T01:36:15;2.75;;;2.45;;
32138;SDS011;18644;48.700;9.210;2023-06-14T01:38:45;3.72;;;2.80;;
32138;SDS011;18644;48.700;9.210;2023-06-14T01:41:14;2.70;;;2.40;;
32138;SDS011;18644;48.700;9.210;2023-06-14T01:43:42;3.10;;;2.75;;
32138;SDS011;18644;48.700;9.210;2023-06-14T01:46:10;3.45;;;2.75;;
32138;SDS011;18644;48.700;9.210;2023-06-14T01:48:38;2.85;;;2.45;;
32138;SDS011;18644;48.700;9.210;2023-06-14T01:51:04;5.07;;;2.63;;
32138;SDS011;18644;48.700;9.210;2023-06-14T01:53:31;4.40;;;2.85;;
32138;SDS011;18644;48.700;9.210;2023-06-14T01:55:58;3.47;;;2.63;;
32138;SDS011;18644;48.700;9.210;2023-06-14T01:58:27;2.90;;;2.53;;
32138;SDS011;18644;48.700;9.210;2023-06-14T02:00:54;3.67;;;2.47;;
32138;SDS011;18644;48.700;9.210;2023-06-14T02:03:21;4.13;;;2.88;;
32138;SDS011;18644;48.700;9.210;2023-06-14T02:05:50;3.70;;;2.50;;
32138;SDS011;18644;48.700;9.210;2023-06-14T02:08:16;2.63;;;2.42;;
32138;SDS011;18644;48.700;9.210;2023-06-14T02:10:43;4.13;;;2.70;;
32138;SDS011;18644;48.700;9.210;2023-06-14T02:13:10;3.67;;;2.70;;
32138;SDS011;18644;48.700;9.210;2023-06-14T02:15:39;6.45;;;2.97;;
32138;SDS011;18644;48.700;9.210;2023-06-14T02:18:08;2.83;;;2.50;;
32138;SDS011;18644;48.700;9.210;2023-06-14T02:20:36;4.35;;;3.00;;
32138;SDS011;18644;48.700;9.210;2023-06-14T02:23:03;4.00;;;2.88;;
32138;SDS011;18644;48.700;9.210;2023-06-14T02:25:30;4.20;;;2.53;;
32138;SDS011;18644;48.700;9.210;2023-06-14T02:27:57;3.22;;;2.30;;
32138;SDS011;18644;48.700;9.210;2023-06-14T02:30:23;3.75;;;2.78;;
32138;SDS011;18644;48.700;9.210;2023-06-14T02:32:52;3.08;;;2.42;;
32138;SDS011;18644;48.700;9.210;2023-06-14T02:35:19;2.95;;;2.42;;
32138;SDS011;18644;48.700;9.210;2023-06-14T02:37:47;5.32;;;3.00;;
32138;SDS011;18644;48.700;9.210;2023-06-14T02:40:14;2.85;;;2.45;;
32138;SDS011;18644;48.700;9.210;2023-06-14T02:42:41;4.07;;;2.72;;
32138;SDS011;18644;48.700;9.210;2023-06-14T02:45:08;3.47;;;2.35;;
32138;SDS011;18644;48.700;9.210;2023-06-14T02:47:35;2.63;;;2.42;;
32138;SDS011;18644;48.700;9.210;2023-06-14T02:50:04;4.72;;;2.85;;
32138;SDS011;18644;48.700;9.210;2023-06-14T02:52:33;3.05;;;2.38;;
32138;SDS011;18644;48.700;9.210;2023-06-14T02:55:00;4.40;;;3.17;;
32138;SDS011;18644;48.700;9.210;2023-06-14T02:57:27;3.30;;;2.40;;
32138;SDS011;18644;48.700;9.210;2023-06-14T02:59:53;6.03;;;2.55;;
32138;SDS011;18644;48.700;9.210;2023-06-14T03:02:20;4.70;;;3.00;;
32138;SDS011;18644;48.700;9.210;2023-06-14T03:04:47;2.65;;;2.38;;
32138;SDS011;18644;48.700;9.210;2023-06-14T03:07:15;3.95;;;2.78;;
32138;SDS011;18644;48.700;9.210;2023-06-14T03:09:44;3.05;;;2.63;;
32138;SDS011;18644;48.700;9.210;2023-06-14T03:12:12;2.72;;;2.28;;
32138;SDS011;18644;48.700;9.210;2023-06-14T03:14:40;3.22;;;2.40;;
32138;SDS011;18644;48.700;9.210;2023-06-14T03:17:07;3.72;;;2.63;;
32138;SDS011;18644;48.700;9.210;2023-06-14T03:19:34;3.85;;;2.88;;
32138;SDS011;18644;48.700;9.210;2023-06-14T03:22:01;3.60;;;2.72;;
32138;SDS011;18644;48.700;9.210;2023-06-14T03:24:30;3.33;;;2.58;;
32138;SDS011;18644;48.700;9.210;2023-06-14T03:27:01;5.10;;;2.80;;
32138;SDS011;18644;48.700;9.210;2023-06-14T03:29:29;3.40;;;2.40;;
32138;SDS011;18644;48.700;9.210;2023-06-14T03:31:57;3.42;;;2.20;;
32138;SDS011;18644;48.700;9.210;2023-06-14T03:34:25;3.53;;;2.47;;
32138;SDS011;18644;48.700;9.210;2023-06-14T03:36:52;4.13;;;2.70;;
32138;SDS011;18644;48.700;9.210;2023-06-14T03:39:19;3.78;;;2.78;;
32138;SDS011;18644;48.700;9.210;2023-06-14T03:41:48;4.07;;;2.90;;
32138;SDS011;18644;48.700;9.210;2023-06-14T03:44:15;4.60;;;3.20;;
32138;SDS011;18644;48.700;9.210;2023-06-14T03:46:44;4.07;;;2.47;;
32138;SDS011;18644;48.700;9.210;2023-06-14T03:49:11;3.10;;;2.70;;
32138;SDS011;18644;48.700;9.210;2023-06-14T03:51:38;4.28;;;2.88;;
32138;SDS011;18644;48.700;9.210;2023-06-14T03:54:05;3.58;;;2.50;;
32138;SDS011;18644;48.700;9.210;2023-06-14T03:56:32;5.43;;;2.92;;
32138;SDS011;18644;48.700;9.210;2023-06-14T03:59:01;6.93;;;3.00;;
32138;SDS011;18644;48.700;9.210;2023-06-14T04:01:28;3.38;;;2.92;;
32138;SDS011;18644;48.700;9.210;2023-06-14T04:03:56;5.15;;;2.63;;
32138;SDS011;18644;48.700;9.210;2023-06-14T04:06:23;4.05;;;2.63;;
32138;SDS011;18644;48.700;9.210;2023-06-14T04:08:57;3.45;;;2.88;;
32138;SDS011;18644;48.700;9.210;2023-06-14T04:11:28;4.70;;;2.63;;
32138;SDS011;18644;48.700;9.210;2023-06-14T04:13:56;4.40;;;3.40;;
32138;SDS011;18644;48.700;9.210;2023-06-14T04:16:25;6.50;;;2.78;;
32138;SDS011;18644;48.700;9.210;2023-06-14T04:18:53;3.88;;;2.75;;
32138;SDS011;18644;48.700;9.210;2023-06-14T04:21:20;3.63;;;2.40;;
32138;SDS011;18644;48.700;9.210;2023-06-14T04:23:48;4.95;;;2.53;;
32138;SDS011;18644;48.700;9.210;2023-06-14T04:26:18;4.40;;;2.60;;
32138;SDS011;18644;48.700;9.210;2023-06-14T04:28:45;3.20;;;2.85;;
32138;SDS011;18644;48.700;9.210;2023-06-14T04:31:12;3.85;;;3.10;;
32138;SDS011;18644;48.700;9.210;2023-06-14T04:33:42;3.55;;;2.60;;
32138;SDS011;18644;48.700;9.210;2023-06-14T04:36:11;4.40;;;2.78;;
32138;SDS011;18644;48.700;9.210;2023-06-14T04:38:38;3.03;;;2.53;;
32138;SDS011;18644;48.700;9.210;2023-06-14T04:41:06;3.05;;;2.60;;
32138;SDS011;18644;48.700;9.210;2023-06-14T04:43:36;3.42;;;2.88;;
32138;SDS011;18644;48.700;9.210;2023-06-14T04:46:04;4.35;;;3.10;;
32138;SDS011;18644;48.700;9.210;2023-06-14T04:48:35;4.20;;;2.80;;
32138;SDS011;18644;48.700;9.210;2023-06-14T04:51:04;3.22;;;2.72;;
32138;SDS011;18644;48.700;9.210;2023-06-14T04:53:31;4.70;;;3.20;;
32138;SDS011;18644;48.700;9.210;2023-06-14T04:55:57;4.53;;;2.70;;
32138;SDS011;18644;48.700;9.210;2023-06-14T04:58:25;5.85;;;3.25;;
32138;SDS011;18644;48.700;9.210;2023-06-14T05:00:53;5.18;;;3.38;;
32138;SDS011;18644;48.700;9.210;2023-06-14T05:03:20;5.13;;;3.20;;
32138;SDS011;18644;48.700;9.210;2023-06-14T05:05:48;8.45;;;3.35;;
32138;SDS011;18644;48.700;9.210;2023-06-14T05:08:19;4.40;;;3.25;;
32138;SDS011;18644;48.700;9.210;2023-06-14T05:10:48;3.28;;;2.92;;
32138;SDS011;18644;48.700;9.210;2023-06-14T05:13:15;3.72;;;3.10;;
32138;SDS011;18644;48.700;9.210;2023-06-14T05:15:42;7.57;;;3.17;;
32138;SDS011;18644;48.700;9.210;2023-06-14T05:18:09;3.45;;;2.97;;
32138;SDS011;18644;48.700;9.210;2023-06-14T05:20:38;3.40;;;3.05;;
32138;SDS011;18644;48.700;9.210;2023-06-14T05:23:06;3.55;;;2.63;;
32138;SDS011;18644;48.700;9.210;2023-06-14T05:25:41;3.92;;;2.78;;
32138;SDS011;18644;48.700;9.210;2023-06-14T05:28:09;4.05;;;2.90;;
32138;SDS011;18644;48.700;9.210;2023-06-14T05:30:37;4.15;;;2.90;;
32138;SDS011;18644;48.700;9.210;2023-06-14T05:33:04;5.03;;;3.00;;
32138;SDS011;18644;48.700;9.210;2023-06-14T05:35:31;3.60;;;2.97;;
32138;SDS011;18644;48.700;9.210;2023-06-14T05:37:58;4.57;;;3.15;;
32138;SDS011;18644;48.700;9.210;2023-06-14T05:40:25;4.38;;;3.00;;
32138;SDS011;18644;48.700;9.210;2023-06-14T05:42:53;4.28;;;3.10;;
32138;SDS011;18644;48.700;9.210;2023-06-14T05:45:20;4.60;;;3.00;;
32138;SDS011;18644;48.700;9.210;2023-06-14T05:47:47;5.43;;;3.15;;
32138;SDS011;18644;48.700;9.210;2023-06-14T05:50:14;7.47;;;3.10;;
32138;SDS011;18644;48.700;9.210;2023-06-14T05:52:41;4.32;;;2.88;;
32138;SDS011;18644;48.700;9.210;2023-06-14T05:55:08;5.03;;;2.70;;
32138;SDS011;18644;48.700;9.210;2023-06-14T05:57:37;3.67;;;2.60;;
32138;SDS011;18644;48.700;9.210;2023-06-14T06:00:06;6.60;;;2.65;;
32138;SDS011;18644;48.700;9.210;2023-06-14T06:02:39;4.03;;;2.42;;
32138;SDS011;18644;48.700;9.210;2023-06-14T06:05:06;3.22;;;2.50;;
32138;SDS011;18644;48.700;9.210;2023-06-14T06:07:33;3.40;;;2.50;;
32138;SDS011;18644;48.700;9.210;2023-06-14T06:10:00;3.30;;;2.63;;
32138;SDS011;18644;48.700;9.210;2023-06-14T06:12:27;4.55;;;2.80;;
32138;SDS011;18644;48.700;9.210;2023-06-14T06:14:54;3.05;;;2.50;;
32138;SDS011;18644;48.700;9.210;2023-06-14T06:17:22;3.00;;;2.58;;
32138;SDS011;18644;48.700;9.210;2023-06-14T06:19:50;3.20;;;2.58;;
32138;SDS011;18644;48.700;9.210;2023-06-14T06:22:16;3.20;;;2.42;;
32138;SDS011;18644;48.700;9.210;2023-06-14T06:24:43;5.60;;;2.63;;
32138;SDS011;18644;48.700;9.210;2023-06-14T06:27:10;2.60;;;2.40;;
32138;SDS011;18644;48.700;9.210;2023-06-14T06:29:39;3.20;;;2.70;;
32138;SDS011;18644;48.700;9.210;2023-06-14T06:32:08;3.80;;;2.40;;
32138;SDS011;18644;48.700;9.210;2023-06-14T06:34:36;3.15;;;2.45;;
32138;SDS011;18644;48.700;9.210;2023-06-14T06:37:03;4.35;;;2.70;;
32138;SDS011;18644;48.700;9.210;2023-06-14T06:39:31;6.90;;;2.70;;
32138;SDS011;18644;48.700;9.210;2023-06-14T06:41:58;5.60;;;2.63;;
32138;SDS011;18644;48.700;9.210;2023-06-14T06:44:24;19.77;;;2.70;;
32138;SDS011;18644;48.700;9.210;2023-06-14T06:46:51;4.82;;;3.00;;
32138;SDS011;18644;48.700;9.210;2023-06-14T06:49:18;7.60;;;2.85;;
32138;SDS011;18644;48.700;9.210;2023-06-14T06:51:59;6.32;;;2.50;;
32138;SDS011;18644;48.700;9.210;2023-06-14T06:54:27;7.30;;;2.95;;
32138;SDS011;18644;48.700;9.210;2023-06-14T06:56:54;2.92;;;2.60;;
32138;SDS011;18644;48.700;9.210;2023-06-14T06:59:21;3.83;;;2.60;;
32138;SDS011;18644;48.700;9.210;2023-06-14T07:01:48;5.50;;;2.78;;
32138;SDS011;18644;48.700;9.210;2023-06-14T07:04:15;4.63;;;2.72;;
32138;SDS011;18644;48.700;9.210;2023-06-14T07:06:42;3.97;;;2.47;;
32138;SDS011;18644;48.700;9.210;2023-06-14T07:09:11;5.60;;;2.58;;
32138;SDS011;18644;48.700;9.210;2023-06-14T07:11:39;3.15;;;2.30;;
32138;SDS011;18644;48.700;9.210;2023-06-14T07:14:06;3.50;;;2.60;;
32138;SDS011;18644;48.700;9.210;2023-06-14T07:16:33;3.83;;;2.50;;
32138;SDS011;18644;48.700;9.210;2023-06-14T07:19:01;2.95;;;2.28;;
32138;SDS011;18644;48.700;9.210;2023-06-14T07:21:28;4.00;;;2.83;;
32138;SDS011;18644;48.700;9.210;2023-06-14T07:23:55;4.25;;;2.55;;
32138;SDS011;18644;48.700;9.210;2023-06-14T07:26:23;4.00;;;2.30;;
32138;SDS011;18644;48.700;9.210;2023-06-14T07:28:51;3.55;;;2.92;;
32138;SDS011;18644;48.700;9.210;2023-06-14T07:31:18;6.22;;;2.40;;
32138;SDS011;18644;48.700;9.210;2023-06-14T07:33:46;3.05;;;2.60;;
32138;SDS011;18644;48.700;9.210;2023-06-14T07:36:13;6.25;;;2.85;;
32138;SDS011;18644;48.700;9.210;2023-06-14T07:38:40;3.58;;;2.50;;
32138;SDS011;18644;48.700;9.210;2023-06-14T07:41:07;4.28;;;2.78;;
32138;SDS011;18644;48.700;9.210;2023-06-14T07:43:35;5.13;;;2.50;;
32138;SDS011;18644;48.700;9.210;2023-06-14T07:46:02;3.13;;;2.83;;
32138;SDS011;18644;48.700;9.210;2023-06-14T07:48:29;2.78;;;2.28;;
32138;SDS011;18644;48.700;9.210;2023-06-14T07:50:56;2.45;;;2.22;;
32138;SDS011;18644;48.700;9.210;2023-06-14T07:53:22;2.42;;;2.13;;
32138;SDS011;18644;48.700;9.210;2023-06-14T07:55:49;10.82;;;2.47;;
32138;SDS011;18644;48.700;9.210;2023-06-14T07:58:16;4.70;;;2.80;;
32138;SDS011;18644;48.700;9.210;2023-06-14T08:00:44;3.45;;;2.15;;
32138;SDS011;18644;48.700;9.210;2023-06-14T08:03:12;2.33;;;2.10;;
32138;SDS011;18644;48.700;9.210;2023-06-14T08:05:39;3.03;;;2.47;;
32138;SDS011;18644;48.700;9.210;2023-06-14T08:08:06;3.67;;;2.38;;
32138;SDS011;18644;48.700;9.210;2023-06-14T08:10:32;4.40;;;2.40;;
32138;SDS011;18644;48.700;9.210;2023-06-14T08:12:59;3.10;;;2.63;;
32138;SDS011;18644;48.700;9.210;2023-06-14T08:15:26;2.67;;;2.40;;
32138;SDS011;18644;48.700;9.210;2023-06-14T08:17:55;3.50;;;2.05;;
32138;SDS011;18644;48.700;9.210;2023-06-14T08:20:22;4.10;;;2.75;;
32138;SDS011;18644;48.700;9.210;2023-06-14T08:22:49;5.32;;;2.40;;
32138;SDS011;18644;48.700;9.210;2023-06-14T08:25:20;4.97;;;2.78;;
32138;SDS011;18644;48.700;9.210;2023-06-14T08:27:47;3.42;;;2.35;;
32138;SDS011;18644;48.700;9.210;2023-06-14T08:30:15;2.92;;;2.40;;
32138;SDS011;18644;48.700;9.210;2023-06-14T08:32:42;4.88;;;2.10;;
32138;SDS011;18644;48.700;9.210;2023-06-14T08:35:11;2.58;;;2.05;;
32138;SDS011;18644;48.700;9.210;2023-06-14T08:37:39;4.13;;;2.25;;
32138;SDS011;18644;48.700;9.210;2023-06-14T08:40:07;3.83;;;2.47;;
32138;SDS011;18644;48.700;9.210;2023-06-14T08:42:45;2.53;;;2.33;;
32138;SDS011;18644;48.700;9.210;2023-06-14T08:45:17;4.38;;;2.53;;
32138;SDS011;18644;48.700;9.210;2023-06-14T08:47:44;2.92;;;2.40;;
32138;SDS011;18644;48.700;9.210;2023-06-14T08:50:18;4.22;;;2.38;;
32138;SDS011;18644;48.700;9.210;2023-06-14T08:52:48;4.82;;;2.35;;
32138;SDS011;18644;48.700;9.210;2023-06-14T08:55:20;3.00;;;2.58;;
32138;SDS011;18644;48.700;9.210;2023-06-14T08:57:52;3.03;;;2.58;;
32138;SDS011;18644;48.700;9.210;2023-06-14T09:00:22;4.45;;;2.22;;
32138;SDS011;18644;48.700;9.210;2023-06-14T09:02:50;2.45;;;2.20;;
32138;SDS011;18644;48.700;9.210;2023-06-14T09:05:19;3.25;;;2.47;;
32138;SDS011;18644;48.700;9.210;2023-06-14T09:07:46;4.97;;;2.58;;
32138;SDS011;18644;48.700;9.210;2023-06-14T09:10:15;5.90;;;2.95;;
32138;SDS011;18644;48.700;9.210;2023-06-14T09:12:42;2.53;;;2.20;;
32138;SDS011;18644;48.700;9.210;2023-06-14T09:15:10;2.42;;;2.22;;
32138;SDS011;18644;48.700;9.210;2023-06-14T09:17:39;3.13;;;2.53;;
32138;SDS011;18644;48.700;9.210;2023-06-14T09:20:06;2.60;;;2.20;;
32138;SDS011;18644;48.700;9.210;2023-06-14T09:22:37;5.15;;;2.60;;
32138;SDS011;18644;48.700;9.210;2023-06-14T09:25:04;7.57;;;2.55;;
32138;SDS011;18644;48.700;9.210;2023-06-14T09:27:33;4.60;;;2.72;;
32138;SDS011;18644;48.700;9.210;2023-06-14T09:30:01;4.82;;;2.50;;
32138;SDS011;18644;48.700;9.210;2023-06-14T09:32:29;3.38;;;2.50;;
32138;SDS011;18644;48.700;9.210;2023-06-14T09:34:56;2.92;;;2.13;;
32138;SDS011;18644;48.700;9.210;2023-06-14T09:37:27;5.88;;;3.13;;
32138;SDS011;18644;48.700;9.210;2023-06-14T09:42:24;3.35;;;1.60;;
32138;SDS011;18644;48.700;9.210;2023-06-14T09:44:53;2.20;;;1.98;;
32138;SDS011;18644;48.700;9.210;2023-06-14T09:47:22;2.92;;;2.20;;
32138;SDS011;18644;48.700;9.210;2023-06-14T09:49:50;2.85;;;2.22;;
32138;SDS011;18644;48.700;9.210;2023-06-14T09:52:19;4.35;;;2.28;;
32138;SDS011;18644;48.700;9.210;2023-06-14T09:54:48;4.40;;;2.28;;
32138;SDS011;18644;48.700;9.210;2023-06-14T09:57:20;2.55;;;2.22;;
32138;SDS011;18644;48.700;9.210;2023-06-14T09:59:48;2.45;;;2.25;;
32138;SDS011;18644;48.700;9.210;2023-06-14T10:02:21;2.85;;;2.10;;
32138;SDS011;18644;48.700;9.210;2023-06-14T10:04:53;2.22;;;1.98;;
32138;SDS011;18644;48.700;9.210;2023-06-14T10:07:32;2.25;;;2.05;;
32138;SDS011;18644;48.700;9.210;2023-06-14T10:10:02;2.10;;;1.90;;
32138;SDS011;18644;48.700;9.210;2023-06-14T10:12:32;2.50;;;2.08;;
32138;SDS011;18644;48.700;9.210;2023-06-14T10:14:59;3.53;;;2.42;;
32138;SDS011;18644;48.700;9.210;2023-06-14T10:17:31;3.78;;;2.10;;
32138;SDS011;18644;48.700;9.210;2023-06-14T10:20:18;2.40;;;2.20;;
32138;SDS011;18644;48.700;9.210;2023-06-14T10:22:59;2.38;;;2.00;;
32138;SDS011;18644;48.700;9.210;2023-06-14T10:25:34;3.38;;;2.50;;
32138;SDS011;18644;48.700;9.210;2023-06-14T10:28:18;2.63;;;2.10;;
32138;SDS011;18644;48.700;9.210;2023-06-14T10:31:06;2.45;;;2.03;;
32138;SDS011;18644;48.700;9.210;2023-06-14T10:33:35;2.35;;;2.00;;
32138;SDS011;18644;48.700;9.210;2023-06-14T10:36:07;2.50;;;2.10;;
32138;SDS011;18644;48.700;9.210;2023-06-14T10:38:56;3.28;;;2.20;;
32138;SDS011;18644;48.700;9.210;2023-06-14T10:41:24;3.28;;;2.25;;
32138;SDS011;18644;48.700;9.210;2023-06-14T10:44:05;2.58;;;2.17;;
32138;SDS011;18644;48.700;9.210;2023-06-14T10:50:02;3.80;;;2.22;;
32138;SDS011;18644;48.700;9.210;2023-06-14T10:52:32;2.47;;;1.98;;
32138;SDS011;18644;48.700;9.210;2023-06-14T10:55:05;3.47;;;2.10;;
32138;SDS011;18644;48.700;9.210;2023-06-14T10:57:36;2.53;;;1.90;;
32138;SDS011;18644;48.700;9.210;2023-06-14T11:00:07;3.25;;;1.98;;
32138;SDS011;18644;48.700;9.210;2023-06-14T11:08:40;1.88;;;1.70;;
32138;SDS011;18644;48.700;9.210;2023-06-14T11:11:38;3.08;;;2.20;;
32138;SDS011;18644;48.700;9.210;2023-06-14T11:14:10;2.10;;;1.90;;
32138;SDS011;18644;48.700;9.210;2023-06-14T11:16:39;2.53;;;1.88;;
32138;SDS011;18644;48.700;9.210;2023-06-14T11:19:06;2.88;;;2.20;;
32138;SDS011;18644;48.700;9.210;2023-06-14T11:21:33;4.28;;;2.25;;
32138;SDS011;18644;48.700;9.210;2023-06-14T11:24:00;2.30;;;2.10;;
32138;SDS011;18644;48.700;9.210;2023-06-14T11:26:27;4.25;;;2.00;;
32138;SDS011;18644;48.700;9.210;2023-06-14T11:28:56;2.47;;;2.03;;
32138;SDS011;18644;48.700;9.210;2023-06-14T11:31:24;2.97;;;2.17;;
32138;SDS011;18644;48.700;9.210;2023-06-14T11:33:54;2.05;;;1.85;;
32138;SDS011;18644;48.700;9.210;2023-06-14T11:36:22;3.22;;;1.98;;
32138;SDS011;18644;48.700;9.210;2023-06-14T11:38:50;2.60;;;2.10;;
32138;SDS011;18644;48.700;9.210;2023-06-14T11:41:24;3.20;;;1.85;;
32138;SDS011;18644;48.700;9.210;2023-06-14T11:43:52;2.40;;;1.98;;
32138;SDS011;18644;48.700;9.210;2023-06-14T11:46:19;2.15;;;1.95;;
32138;SDS011;18644;48.700;9.210;2023-06-14T11:48:49;2.85;;;2.00;;
32138;SDS011;18644;48.700;9.210;2023-06-14T11:51:20;3.40;;;2.05;;
32138;SDS011;18644;48.700;9.210;2023-06-14T11:53:47;1.90;;;1.75;;
32138;SDS011;18644;48.700;9.210;2023-06-14T11:56:14;2.10;;;1.90;;
32138;SDS011;18644;48.700;9.210;2023-06-14T11:58:42;1.70;;;1.60;;
32138;SDS011;18644;48.700;9.210;2023-06-14T12:01:09;3.20;;;2.00;;
32138;SDS011;18644;48.700;9.210;2023-06-14T12:03:46;1.73;;;1.63;;
32138;SDS011;18644;48.700;9.210;2023-06-14T12:06:14;2.60;;;2.10;;
32138;SDS011;18644;48.700;9.210;2023-06-14T12:08:45;2.08;;;1.88;;
32138;SDS011;18644;48.700;9.210;2023-06-14T12:11:14;2.67;;;1.90;;
32138;SDS011;18644;48.700;9.210;2023-06-14T12:13:42;1.80;;;1.70;;
32138;SDS011;18644;48.700;9.210;2023-06-14T12:16:09;2.33;;;1.83;;
32138;SDS011;18644;48.700;9.210;2023-06-14T12:18:39;2.13;;;1.92;;
32138;SDS011;18644;48.700;9.210;2023-06-14T12:21:08;2.28;;;1.92;;
32138;SDS011;18644;48.700;9.210;2023-06-14T12:23:41;2.35;;;1.77;;
32138;SDS011;18644;48.700;9.210;2023-06-14T12:26:12;2.28;;;1.80;;
32138;SDS011;18644;48.700;9.210;2023-06-14T12:28:40;2.15;;;1.95;;
32138;SDS011;18644;48.700;9.210;2023-06-14T12:31:08;2.28;;;1.90;;
32138;SDS011;18644;48.700;9.210;2023-06-14T12:33:35;2.22;;;1.65;;
32138;SDS011;18644;48.700;9.210;2023-06-14T12:36:03;3.88;;;2.53;;
32138;SDS011;18644;48.700;9.210;2023-06-14T12:38:31;2.60;;;2.20;;
32138;SDS011;18644;48.700;9.210;2023-06-14T12:41:00;3.33;;;2.20;;
32138;SDS011;18644;48.700;9.210;2023-06-14T12:43:27;2.35;;;1.83;;
32138;SDS011;18644;48.700;9.210;2023-06-14T12:45:54;3.75;;;2.13;;
32138;SDS011;18644;48.700;9.210;2023-06-14T12:48:21;1.75;;;1.60;;
32138;SDS011;18644;48.700;9.210;2023-06-14T12:50:48;2.30;;;1.80;;
32138;SDS011;18644;48.700;9.210;2023-06-14T12:53:15;2.90;;;2.10;;
32138;SDS011;18644;48.700;9.210;2023-06-14T12:55:43;3.20;;;2.00;;
32138;SDS011;18644;48.700;9.210;2023-06-14T12:58:11;2.65;;;1.83;;
32138;SDS011;18644;48.700;9.210;2023-06-14T13:00:39;2.83;;;2.20;;
32138;SDS011;18644;48.700;9.210;2023-06-14T13:03:06;3.70;;;2.15;;
32138;SDS011;18644;48.700;9.210;2023-06-14T13:05:33;3.50;;;1.88;;
32138;SDS011;18644;48.700;9.210;2023-06-14T13:08:00;4.20;;;2.28;;
32138;SDS011;18644;48.700;9.210;2023-06-14T13:10:27;2.90;;;1.60;;
32138;SDS011;18644;48.700;9.210;2023-06-14T13:12:54;2.95;;;2.15;;
32138;SDS011;18644;48.700;9.210;2023-06-14T13:15:24;4.68;;;2.10;;
32138;SDS011;18644;48.700;9.210;2023-06-14T13:17:51;3.55;;;1.80;;
32138;SDS011;18644;48.700;9.210;2023-06-14T13:20:18;3.88;;;2.00;;
32138;SDS011;18644;48.700;9.210;2023-06-14T13:22:45;2.08;;;1.80;;
32138;SDS011;18644;48.700;9.210;2023-06-14T13:25:13;3.95;;;2.05;;
32138;SDS011;18644;48.700;9.210;2023-06-14T13:27:40;2.22;;;1.88;;
32138;SDS011;18644;48.700;9.210;2023-06-14T13:30:07;2.10;;;1.90;;
32138;SDS011;18644;48.700;9.210;2023-06-14T13:32:36;6.63;;;2.00;;
32138;SDS011;18644;48.700;9.210;2023-06-14T13:35:04;3.50;;;1.83;;
32138;SDS011;18644;48.700;9.210;2023-06-14T13:37:31;2.90;;;1.95;;
32138;SDS011;18644;48.700;9.210;2023-06-14T13:39:58;2.50;;;1.83;;
32138;SDS011;18644;48.700;9.210;2023-06-14T13:42:25;3.55;;;1.60;;
32138;SDS011;18644;48.700;9.210;2023-06-14T13:44:56;2.50;;;2.30;;
32138;SDS011;18644;48.700;9.210;2023-06-14T13:47:23;2.30;;;1.80;;
32138;SDS011;18644;48.700;9.210;2023-06-14T13:49:52;3.00;;;2.30;;
32138;SDS011;18644;48.700;9.210;2023-06-14T13:52:18;3.58;;;1.80;;
32138;SDS011;18644;48.700;9.210;2023-06-14T13:54:45;3.03;;;1.92;;
32138;SDS011;18644;48.700;9.210;2023-06-14T13:57:12;2.65;;;2.13;;
32138;SDS011;18644;48.700;9.210;2023-06-14T13:59:40;2.97;;;2.15;;
32138;SDS011;18644;48.700;9.210;2023-06-14T14:02:08;2.08;;;1.88;;
32138;SDS011;18644;48.700;9.210;2023-06-14T14:04:36;2.28;;;1.90;;
32138;SDS011;18644;48.700;9.210;2023-06-14T14:07:06;2.10;;;1.85;;
32138;SDS011;18644;48.700;9.210;2023-06-14T14:09:36;1.88;;;1.75;;
32138;SDS011;18644;48.700;9.210;2023-06-14T14:12:04;2.17;;;1.80;;
32138;SDS011;18644;48.700;9.210;2023-06-14T14:14:32;2.47;;;1.75;;
32138;SDS011;18644;48.700;9.210;2023-06-14T14:17:00;2.05;;;1.88;;
32138;SDS011;18644;48.700;9.210;2023-06-14T14:19:26;2.03;;;1.80;;
32138;SDS011;18644;48.700;9.210;2023-06-14T14:21:53;2.00;;;1.80;;
32138;SDS011;18644;48.700;9.210;2023-06-14T14:24:22;2.75;;;2.20;;
32138;SDS011;18644;48.700;9.210;2023-06-14T14:26:49;3.38;;;2.50;;
32138;SDS011;18644;48.700;9.210;2023-06-14T14:29:18;2.20;;;1.77;;
32138;SDS011;18644;48.700;9.210;2023-06-14T14:31:46;2.53;;;1.83;;
32138;SDS011;18644;48.700;9.210;2023-06-14T14:34:16;2.00;;;1.80;;
32138;SDS011;18644;48.700;9.210;2023-06-14T14:36:43;1.95;;;1.80;;
32138;SDS011;18644;48.700;9.210;2023-06-14T14:39:10;2.05;;;1.85;;
32138;SDS011;18644;48.700;9.210;2023-06-14T14:41:39;10.07;;;2.22;;
32138;SDS011;18644;48.700;9.210;2023-06-14T14:44:06;2.10;;;1.90;;
32138;SDS011;18644;48.700;9.210;2023-06-14T14:46:34;2.42;;;2.03;;
32138;SDS011;18644;48.700;9.210;2023-06-14T14:49:01;2.55;;;2.20;;
32138;SDS011;18644;48.700;9.210;2023-06-14T14:51:29;2.05;;;1.85;;
32138;SDS011;18644;48.700;9.210;2023-06-14T14:53:56;2.33;;;1.63;;
32138;SDS011;18644;48.700;9.210;2023-06-14T14:56:23;2.30;;;1.83;;
32138;SDS011;18644;48.700;9.210;2023-06-14T14:58:52;1.70;;;1.60;;
32138;SDS011;18644;48.700;9.210;2023-06-14T15:01:19;1.83;;;1.73;;
32138;SDS011;18644;48.700;9.210;2023-06-14T15:03:46;2.20;;;2.00;;
32138;SDS011;18644;48.700;9.210;2023-06-14T15:06:13;1.90;;;1.80;;
32138;SDS011;18644;48.700;9.210;2023-06-14T15:08:41;2.25;;;1.90;;